Time;durP1;ratioP1;P1;durP2;ratioP2;P2;SDS_P1;SDS_P2;PMS_P1;PMS_P2;Temp;Humidity;BMP_temperature;BMP_pressure;BME280_temperature;BME280_humidity;BME280_pressure;Samples;Min_cycle;Max_cycle;Signal;HPM_P1;HPM_P2
2021/09/23 00:00:24;;;;;;;16.65;9.27;;;14.80;71.50;;;;;;5053767;28;20027;-66
2021/09/23 00:05:25;;;;;;;17.25;9.45;;;14.80;71.60;;;;;;5072038;28;20024;-66
2021/09/23 00:07:55;;;;;;;13.85;8.38;;;14.70;71.70;;;;;;5054334;28;20024;-66
2021/09/23 00:10:29;;;;;;;14.82;8.82;;;14.70;71.80;;;;;;5071972;28;20024;-66
2021/09/23 00:12:56;;;;;;;16.50;8.82;;;14.70;71.80;;;;;;5071097;28;20036;-66
2021/09/23 00:15:23;;;;;;;19.75;10.20;;;14.60;71.90;;;;;;5054088;28;20035;-66
2021/09/23 00:17:52;;;;;;;14.50;9.25;;;14.60;71.90;;;;;;5071696;28;20042;-67
2021/09/23 00:20:21;;;;;;;17.60;9.18;;;14.60;71.90;;;;;;5071503;28;20029;-66
2021/09/23 00:22:47;;;;;;;17.50;8.98;;;14.60;71.90;;;;;;5053841;28;20040;-65
2021/09/23 00:25:13;;;;;;;15.13;9.23;;;14.60;72.00;;;;;;5070931;28;20028;-66
2021/09/23 00:27:39;;;;;;;14.52;8.77;;;14.60;72.10;;;;;;5067724;28;20048;-66
2021/09/23 00:30:07;;;;;;;18.30;8.85;;;14.50;72.00;;;;;;5091555;28;20553;-65
2021/09/23 00:32:33;;;;;;;14.88;8.10;;;14.50;72.00;;;;;;5091745;28;20024;-66
2021/09/23 00:34:59;;;;;;;15.43;8.43;;;14.50;72.10;;;;;;5073210;28;20024;-64
2021/09/23 00:37:25;;;;;;;16.75;9.48;;;14.40;72.00;;;;;;5091513;28;20032;-65
2021/09/23 00:39:51;;;;;;;16.27;9.00;;;14.40;72.20;;;;;;5091615;28;20407;-66
2021/09/23 00:42:16;;;;;;;16.45;8.82;;;14.40;72.30;;;;;;5090863;28;20295;-65
2021/09/23 00:44:57;;;;;;;13.52;8.15;;;14.40;72.20;;;;;;5091617;28;20031;-66
2021/09/23 00:47:23;;;;;;;17.50;8.80;;;14.50;72.10;;;;;;5091750;28;20032;-66
2021/09/23 00:49:50;;;;;;;17.83;8.23;;;14.50;72.00;;;;;;5091343;28;20024;-67
2021/09/23 00:52:17;;;;;;;15.65;8.70;;;14.50;71.80;;;;;;5072558;28;20039;-67
2021/09/23 00:54:43;;;;;;;19.40;8.63;;;14.50;71.60;;;;;;5072389;28;20469;-66
2021/09/23 00:57:09;;;;;;;14.85;8.70;;;14.50;71.60;;;;;;5072648;28;20032;-66
2021/09/23 00:59:35;;;;;;;13.68;8.23;;;14.50;71.60;;;;;;5091182;28;20028;-66
2021/09/23 01:02:00;;;;;;;17.05;8.48;;;14.50;71.50;;;;;;5091144;28;20024;-67
2021/09/23 01:04:27;;;;;;;18.02;8.77;;;14.50;72.20;;;;;;5091019;28;20477;-66
2021/09/23 01:06:53;;;;;;;13.07;8.38;;;14.50;71.50;;;;;;5072589;28;20024;-65
2021/09/23 01:09:28;;;;;;;18.42;8.15;;;14.40;71.50;;;;;;5090617;28;20086;-66
2021/09/23 01:11:55;;;;;;;19.02;9.63;;;14.40;71.60;;;;;;5091186;28;20457;-65
2021/09/23 01:14:21;;;;;;;17.33;9.13;;;14.40;71.50;;;;;;5090681;28;20024;-66
2021/09/23 01:16:48;;;;;;;16.42;9.07;;;14.40;71.50;;;;;;5091082;28;20361;-66
2021/09/23 01:21:59;;;;;;;18.15;9.50;;;14.30;71.60;;;;;;5091063;28;20034;-66
2021/09/23 01:24:26;;;;;;;17.17;9.75;;;14.30;71.70;;;;;;5091295;28;20032;-66
2021/09/23 01:26:55;;;;;;;18.42;9.27;;;14.30;71.80;;;;;;5083154;28;20045;-66
2021/09/23 01:29:22;;;;;;;17.65;9.68;;;14.30;71.90;;;;;;5052452;28;20032;-67
2021/09/23 01:31:57;;;;;;;17.13;9.50;;;14.30;71.90;;;;;;5070839;28;20102;-66
2021/09/23 01:34:24;;;;;;;16.67;9.60;;;14.20;72.00;;;;;;5069715;28;20067;-65
2021/09/23 01:36:50;;;;;;;18.10;9.43;;;14.20;72.20;;;;;;5070692;28;20462;-65
2021/09/23 01:39:25;;;;;;;15.65;10.20;;;14.20;72.30;;;;;;5052214;28;20040;-66
2021/09/23 01:41:52;;;;;;;17.88;9.60;;;14.20;72.60;;;;;;5052415;28;20478;-66
2021/09/23 01:44:17;;;;;;;17.85;10.27;;;14.10;72.70;;;;;;5051842;28;20119;-67
2021/09/23 01:46:43;;;;;;;21.77;9.98;;;14.20;72.90;;;;;;5070343;28;20173;-67
2021/09/23 01:49:09;;;;;;;17.83;10.18;;;14.20;72.90;;;;;;5052188;28;20454;-66
2021/09/23 01:51:35;;;;;;;16.95;9.85;;;14.30;72.80;;;;;;5052909;28;20454;-66
2021/09/23 01:54:03;;;;;;;17.02;9.82;;;14.30;72.60;;;;;;5070753;28;20025;-66
2021/09/23 01:56:29;;;;;;;19.08;10.57;;;14.30;72.40;;;;;;5070514;28;20039;-66
2021/09/23 01:58:55;;;;;;;17.13;10.05;;;14.20;72.20;;;;;;5070290;28;20021;-66
2021/09/23 02:01:21;;;;;;;21.20;11.05;;;14.20;72.40;;;;;;5069896;28;20035;-65
2021/09/23 02:03:48;;;;;;;17.13;9.43;;;14.20;72.40;;;;;;5052369;28;20032;-66
2021/09/23 02:06:16;;;;;;;20.10;10.63;;;14.20;72.60;;;;;;5072881;28;20055;-67
2021/09/23 02:08:42;;;;;;;21.45;9.77;;;14.20;72.60;;;;;;5056107;28;20116;-67
2021/09/23 02:11:08;;;;;;;16.98;9.18;;;14.30;72.50;;;;;;5073067;28;20134;-65
2021/09/23 02:13:34;;;;;;;17.58;9.45;;;14.30;72.30;;;;;;5073729;28;20056;-66
2021/09/23 02:16:00;;;;;;;17.13;10.35;;;14.40;72.10;;;;;;5073623;28;20543;-66
2021/09/23 02:18:26;;;;;;;18.52;9.70;;;14.50;71.90;;;;;;5073536;28;20036;-65
2021/09/23 02:20:51;;;;;;;17.15;10.10;;;14.50;71.60;;;;;;5073920;28;20051;-66
2021/09/23 02:23:17;;;;;;;19.63;9.93;;;14.50;71.40;;;;;;5072824;28;20025;-67
2021/09/23 02:25:43;;;;;;;15.82;9.15;;;14.50;71.30;;;;;;5055377;28;20032;-67
2021/09/23 02:28:09;;;;;;;16.17;9.57;;;14.60;71.30;;;;;;5072731;28;20153;-67
2021/09/23 02:30:36;;;;;;;16.15;9.00;;;14.60;71.10;;;;;;5055486;28;20119;-67
2021/09/23 02:33:02;;;;;;;16.83;9.50;;;14.60;70.80;;;;;;5055608;28;20032;-66
2021/09/23 02:35:28;;;;;;;18.85;10.30;;;14.70;70.70;;;;;;5055228;28;20024;-66
2021/09/23 02:37:54;;;;;;;15.95;9.27;;;14.70;70.60;;;;;;5073504;28;20098;-67
2021/09/23 02:40:19;;;;;;;21.02;9.23;;;14.70;70.60;;;;;;5072965;28;20152;-67
2021/09/23 02:42:45;;;;;;;20.35;9.98;;;14.60;70.40;;;;;;5073422;28;20517;-66
2021/09/23 02:45:12;;;;;;;17.15;8.98;;;14.70;70.60;;;;;;5073036;28;20063;-66
2021/09/23 02:47:39;;;;;;;21.25;10.05;;;14.70;70.60;;;;;;5055502;28;20052;-65
2021/09/23 02:50:05;;;;;;;16.60;9.82;;;14.70;70.50;;;;;;5055443;28;20494;-66
2021/09/23 02:52:31;;;;;;;16.15;9.32;;;14.70;71.00;;;;;;5073262;28;20033;-66
2021/09/23 02:54:57;;;;;;;16.80;9.30;;;14.70;70.40;;;;;;5073098;28;20029;-66
2021/09/23 02:57:23;;;;;;;22.42;9.57;;;14.70;70.50;;;;;;5073020;28;20104;-66
2021/09/23 02:59:49;;;;;;;15.40;9.43;;;14.70;70.40;;;;;;5055085;28;20073;-66
2021/09/23 03:02:14;;;;;;;16.42;9.20;;;14.70;70.40;;;;;;5054468;28;20032;-66
2021/09/23 03:04:40;;;;;;;18.30;9.20;;;14.70;70.40;;;;;;5072853;28;20443;-65
2021/09/23 03:07:07;;;;;;;13.82;9.45;;;14.70;70.80;;;;;;5054759;28;20107;-66
2021/09/23 03:09:32;;;;;;;17.35;9.48;;;14.80;70.20;;;;;;5055225;28;20449;-66
2021/09/23 03:11:58;;;;;;;16.63;9.98;;;14.80;70.10;;;;;;5072725;28;20024;-67
2021/09/23 03:14:24;;;;;;;19.02;9.88;;;14.90;70.80;;;;;;5053766;28;20106;-66
2021/09/23 03:16:50;;;;;;;21.60;10.63;;;14.80;70.00;;;;;;5071349;28;20104;-66
2021/09/23 03:19:16;;;;;;;18.75;9.63;;;14.80;70.00;;;;;;5072015;28;20116;-66
2021/09/23 03:21:42;;;;;;;17.55;10.50;;;14.90;70.00;;;;;;5072682;28;20104;-66
2021/09/23 03:24:10;;;;;;;18.30;10.57;;;14.90;70.10;;;;;;5053859;28;20473;-67
2021/09/23 03:26:36;;;;;;;17.77;11.43;;;14.90;70.10;;;;;;5072489;28;20088;-66
2021/09/23 03:29:04;;;;;;;21.65;11.85;;;14.80;70.00;;;;;;5072486;28;20020;-66
2021/09/23 03:31:31;;;;;;;22.45;11.13;;;14.90;70.00;;;;;;5072023;28;20230;-66
2021/09/23 03:33:57;;;;;;;18.80;10.77;;;14.90;70.10;;;;;;5072689;28;20385;-66
2021/09/23 03:36:24;;;;;;;18.67;10.60;;;14.80;70.10;;;;;;5037106;28;20020;-65
2021/09/23 03:38:52;;;;;;;19.55;10.63;;;14.80;70.20;;;;;;5072724;28;20079;-65
2021/09/23 03:41:18;;;;;;;19.70;11.82;;;14.80;70.20;;;;;;5072118;28;20025;-67
2021/09/23 03:43:44;;;;;;;18.00;11.40;;;14.70;70.40;;;;;;5054469;28;20037;-66
2021/09/23 03:46:10;;;;;;;20.60;11.25;;;14.70;70.60;;;;;;5054018;28;20359;-63
2021/09/23 03:48:36;;;;;;;21.55;11.98;;;14.70;70.80;;;;;;5054378;28;20028;-66
2021/09/23 03:51:02;;;;;;;18.88;12.02;;;14.60;71.00;;;;;;5054448;28;20046;-65
2021/09/23 03:53:27;;;;;;;19.25;11.90;;;14.60;71.10;;;;;;5071520;28;20067;-65
2021/09/23 03:55:53;;;;;;;19.77;12.45;;;14.50;71.20;;;;;;5072322;28;20032;-66
2021/09/23 03:58:19;;;;;;;17.95;11.38;;;14.50;71.50;;;;;;5053976;28;20032;-66
2021/09/23 04:00:45;;;;;;;18.95;11.75;;;14.50;71.50;;;;;;5054232;28;20036;-67
2021/09/23 04:03:11;;;;;;;20.90;11.15;;;14.60;71.50;;;;;;5071781;28;20429;-66
2021/09/23 04:05:37;;;;;;;22.65;11.75;;;14.60;71.40;;;;;;5071684;28;20021;-66
2021/09/23 04:08:04;;;;;;;18.35;11.00;;;14.50;71.30;;;;;;5071971;28;20475;-66
2021/09/23 04:10:30;;;;;;;19.70;12.07;;;14.50;71.40;;;;;;5071316;28;20050;-67
2021/09/23 04:12:56;;;;;;;20.20;11.02;;;14.50;71.50;;;;;;5072124;28;20078;-66
2021/09/23 04:15:23;;;;;;;20.85;12.20;;;14.50;71.50;;;;;;5071482;28;20473;-66
2021/09/23 04:17:51;;;;;;;20.02;11.32;;;14.50;71.70;;;;;;5071517;28;20020;-66
2021/09/23 04:20:17;;;;;;;17.55;11.23;;;14.50;71.60;;;;;;5071191;28;20108;-66
2021/09/23 04:22:43;;;;;;;17.92;10.77;;;14.40;71.70;;;;;;5071915;28;20111;-66
2021/09/23 04:25:10;;;;;;;20.42;11.63;;;14.50;71.80;;;;;;5071617;28;20028;-66
2021/09/23 04:27:36;;;;;;;22.75;11.60;;;14.40;71.80;;;;;;5070837;28;20051;-66
2021/09/23 04:30:03;;;;;;;20.27;11.52;;;14.40;71.90;;;;;;5071398;28;20108;-66
2021/09/23 04:32:29;;;;;;;20.10;11.75;;;14.40;71.90;;;;;;5035758;28;20036;-66
2021/09/23 04:34:54;;;;;;;20.30;11.98;;;14.40;72.00;;;;;;5071451;28;20059;-66
2021/09/23 04:37:20;;;;;;;20.25;11.25;;;14.40;72.10;;;;;;5070684;28;20052;-66
2021/09/23 04:39:46;;;;;;;25.50;11.55;;;14.40;72.30;;;;;;5053471;28;20433;-66
2021/09/23 04:42:12;;;;;;;18.08;10.18;;;14.40;72.20;;;;;;5071916;28;20025;-65
2021/09/23 04:44:38;;;;;;;24.67;11.30;;;14.50;72.20;;;;;;5070661;28;20043;-66
2021/09/23 04:47:04;;;;;;;23.05;11.43;;;14.50;71.90;;;;;;5071095;28;20052;-67
2021/09/23 04:49:33;;;;;;;21.02;11.32;;;14.60;71.80;;;;;;5070810;28;20039;-66
2021/09/23 04:51:59;;;;;;;19.45;10.40;;;14.70;71.50;;;;;;5052973;28;20032;-66
2021/09/23 04:54:25;;;;;;;16.08;10.50;;;14.70;71.30;;;;;;5070483;28;20035;-66
2021/09/23 04:56:50;;;;;;;17.23;9.27;;;14.80;71.10;;;;;;5071570;28;20369;-68
2021/09/23 04:59:16;;;;;;;18.27;10.43;;;14.80;71.00;;;;;;5052100;28;20438;-70
2021/09/23 05:01:42;;;;;;;16.65;10.20;;;14.90;70.90;;;;;;5054279;28;20031;-67
2021/09/23 05:04:08;;;;;;;18.02;9.82;;;14.90;70.70;;;;;;5071269;28;20162;-67
2021/09/23 05:06:34;;;;;;;17.98;10.88;;;14.90;70.60;;;;;;5052607;28;20033;-68
2021/09/23 05:11:44;;;;;;;22.38;9.75;;;14.90;70.50;;;;;;5071270;28;20031;-66
2021/09/23 05:14:09;;;;;;;18.80;10.57;;;14.90;70.40;;;;;;5036207;28;20115;-65
2021/09/23 05:16:35;;;;;;;18.15;10.00;;;15.00;70.40;;;;;;5052631;28;20247;-66
2021/09/23 05:19:01;;;;;;;16.58;10.57;;;15.00;70.20;;;;;;5053119;28;20020;-67
2021/09/23 05:21:27;;;;;;;22.80;9.90;;;15.00;70.00;;;;;;5052108;28;20024;-65
2021/09/23 05:23:53;;;;;;;18.13;9.80;;;15.00;70.00;;;;;;5052901;28;20060;-67
2021/09/23 05:29:02;;;;;;;;;;;15.10;69.90;;;;;;5071329;28;20035;-68
2021/09/23 05:31:28;;;;;;;18.75;9.63;;;15.20;69.60;;;;;;5070818;28;19904;-68
2021/09/23 05:33:56;;;;;;;18.58;9.57;;;15.30;69.40;;;;;;5070784;28;20074;-68
2021/09/23 05:36:21;;;;;;;18.45;10.07;;;15.40;69.10;;;;;;5070114;28;20119;-67
2021/09/23 05:38:47;;;;;;;19.80;9.32;;;15.40;68.60;;;;;;5070553;28;20119;-68
2021/09/23 05:41:13;;;;;;;19.77;9.00;;;15.40;68.30;;;;;;5039365;28;20020;-66
2021/09/23 05:43:39;;;;;;;16.30;8.07;;;15.50;68.20;;;;;;5074149;28;20092;-67
2021/09/23 05:46:05;;;;;;;19.65;8.65;;;15.50;68.10;;;;;;5056197;28;20032;-65
2021/09/23 05:48:31;;;;;;;15.60;7.90;;;15.60;67.90;;;;;;5073216;28;20024;-67
2021/09/23 05:50:56;;;;;;;15.85;8.35;;;15.70;67.40;;;;;;5073684;28;20392;-66
2021/09/23 05:53:22;;;;;;;20.77;8.43;;;15.80;67.10;;;;;;5039249;28;20029;-65
2021/09/23 05:55:48;;;;;;;17.77;7.45;;;15.80;66.70;;;;;;5055949;28;20111;-66
2021/09/23 05:58:14;;;;;;;16.80;7.63;;;15.90;66.50;;;;;;5074579;28;20024;-67
2021/09/23 06:00:39;;;;;;;14.00;7.47;;;15.90;66.50;;;;;;5073530;28;20289;-65
2021/09/23 06:03:05;;;;;;;14.35;7.53;;;16.00;66.10;;;;;;5073797;28;20086;-65
2021/09/23 06:05:31;;;;;;;13.48;7.68;;;16.10;65.90;;;;;;5074047;28;20418;-67
2021/09/23 06:07:57;;;;;;;9.93;7.15;;;16.20;65.30;;;;;;5074409;28;20027;-66
2021/09/23 06:10:23;;;;;;;19.08;7.90;;;16.30;65.40;;;;;;5055646;28;20462;-66
2021/09/23 06:12:48;;;;;;;16.52;7.47;;;16.40;65.20;;;;;;5074003;28;20040;-67
2021/09/23 06:15:14;;;;;;;15.68;7.32;;;16.60;64.90;;;;;;5056046;28;20025;-66
2021/09/23 06:17:42;;;;;;;23.30;8.55;;;16.60;64.00;;;;;;5055603;28;20073;-66
2021/09/23 06:20:10;;;;;;;45.42;9.68;;;16.70;63.80;;;;;;5073827;28;20539;-67
2021/09/23 06:22:35;;;;;;;61.05;11.98;;;16.70;63.60;;;;;;5073290;28;20052;-65
2021/09/23 06:25:01;;;;;;;78.93;12.35;;;16.60;63.50;;;;;;5074031;28;20427;-65
2021/09/23 06:27:27;;;;;;;54.88;10.00;;;16.60;63.50;;;;;;5073398;28;20062;-66
2021/09/23 06:29:53;;;;;;;70.28;13.45;;;16.50;63.40;;;;;;5055802;28;20051;-66
2021/09/23 06:32:19;;;;;;;56.13;13.18;;;16.60;63.50;;;;;;5073744;28;20103;-65
2021/09/23 06:34:48;;;;;;;93.90;14.68;;;16.60;63.70;;;;;;5055308;28;20462;-67
2021/09/23 06:39:59;;;;;;;201.80;24.10;;;16.70;63.40;;;;;;5073173;28;20505;-67
2021/09/23 06:42:25;;;;;;;80.05;11.63;;;16.80;63.30;;;;;;5054793;28;20036;-66
2021/09/23 06:44:50;;;;;;;73.82;13.68;;;16.90;62.70;;;;;;5073410;28;20035;-69
2021/09/23 06:47:16;;;;;;;100.05;18.33;;;17.10;62.50;;;;;;5071630;28;20410;-67
2021/09/23 06:49:42;;;;;;;58.83;12.65;;;17.30;62.30;;;;;;5053558;28;20025;-69
2021/09/23 06:52:09;;;;;;;90.13;14.02;;;17.70;61.40;;;;;;5053945;28;20050;-67
2021/09/23 06:54:38;;;;;;;116.97;15.27;;;18.00;60.40;;;;;;5072032;28;20047;-65
2021/09/23 06:57:04;;;;;;;64.45;10.75;;;18.20;59.50;;;;;;5055051;28;20389;-68
2021/09/23 06:59:30;;;;;;;88.32;14.77;;;18.40;58.50;;;;;;5054520;28;20028;-67
2021/09/23 07:01:56;;;;;;;66.72;12.40;;;18.50;58.00;;;;;;5054980;28;20024;-67
2021/09/23 07:04:21;;;;;;;93.40;15.70;;;18.80;57.60;;;;;;5072970;28;20089;-67
2021/09/23 07:06:47;;;;;;;67.82;14.35;;;19.10;57.60;;;;;;5072519;28;20120;-69
2021/09/23 07:09:13;;;;;;;50.95;12.32;;;20.30;56.20;;;;;;5072736;28;20148;-67
2021/09/23 07:11:38;;;;;;;75.75;13.30;;;22.40;53.00;;;;;;5071684;28;20470;-68
2021/09/23 07:14:05;;;;;;;91.75;14.63;;;24.60;47.80;;;;;;5072638;28;20436;-67
2021/09/23 07:16:30;;;;;;;53.28;11.23;;;26.70;44.00;;;;;;5053780;28;20037;-69
2021/09/23 07:18:56;;;;;;;68.45;11.80;;;28.30;40.20;;;;;;5072809;28;20028;-68
2021/09/23 07:21:22;;;;;;;50.40;11.45;;;29.70;38.60;;;;;;5072664;28;20036;-68
2021/09/23 07:23:47;;;;;;;60.88;13.07;;;31.20;36.60;;;;;;5053160;28;20029;-69
2021/09/23 07:26:16;;;;;;;34.22;9.88;;;32.10;34.20;;;;;;5053857;28;20450;-68
2021/09/23 07:28:42;;;;;;;69.85;13.35;;;33.00;32.80;;;;;;5071882;28;20426;-67
2021/09/23 07:31:08;;;;;;;68.10;13.07;;;33.70;31.60;;;;;;5072173;28;20021;-69
2021/09/23 07:33:33;;;;;;;94.13;16.60;;;34.20;30.30;;;;;;5071345;28;20506;-69
2021/09/23 07:35:59;;;;;;;53.72;11.75;;;34.70;29.90;;;;;;5071462;28;20021;-69
2021/09/23 07:38:25;;;;;;;44.72;9.98;;;35.10;29.50;;;;;;5053828;28;20465;-68
2021/09/23 07:40:51;;;;;;;23.30;7.10;;;35.80;29.10;;;;;;5071086;28;20123;-69
2021/09/23 07:43:17;;;;;;;18.52;6.22;;;36.20;28.20;;;;;;5037533;28;20041;-69
2021/09/23 07:45:42;;;;;;;13.18;5.88;;;36.10;28.20;;;;;;5071531;28;20040;-70
2021/09/23 07:48:09;;;;;;;12.77;5.80;;;36.60;28.20;;;;;;5072094;28;20021;-67
2021/09/23 07:50:35;;;;;;;12.98;6.35;;;37.20;27.60;;;;;;5053389;28;20478;-67
2021/09/23 07:53:03;;;;;;;11.95;5.80;;;37.80;27.20;;;;;;5053532;28;20044;-71
2021/09/23 07:55:29;;;;;;;15.38;5.28;;;38.00;26.70;;;;;;5052765;28;20111;-66
2021/09/23 07:57:55;;;;;;;13.00;5.40;;;38.30;26.70;;;;;;5053461;28;20537;-70
2021/09/23 08:00:21;;;;;;;12.52;4.97;;;38.40;26.40;;;;;;5053668;28;20036;-66
2021/09/23 08:02:46;;;;;;;10.48;4.68;;;38.10;26.60;;;;;;5069519;28;20028;-70
2021/09/23 08:05:15;;;;;;;11.73;5.30;;;38.50;26.50;;;;;;5053348;28;20021;-72
2021/09/23 08:07:44;;;;;;;15.68;5.78;;;38.70;26.20;;;;;;5051834;28;20021;-70
2021/09/23 08:10:10;;;;;;;9.82;4.90;;;38.90;25.80;;;;;;5069944;28;20078;-69
2021/09/23 08:12:36;;;;;;;11.20;5.13;;;38.90;25.90;;;;;;5050101;28;20029;-70
2021/09/23 08:15:14;;;;;;;10.18;5.38;;;39.10;25.80;;;;;;5070756;28;20021;-70
2021/09/23 08:17:43;;;;;;;14.18;5.78;;;39.40;25.70;;;;;;5069420;28;20078;-72
2021/09/23 08:20:09;;;;;;;92.63;15.85;;;39.70;25.50;;;;;;5070013;28;20024;-67
2021/09/23 08:22:36;;;;;;;28.58;7.45;;;39.30;25.30;;;;;;5051425;28;20225;-71
2021/09/23 08:25:04;;;;;;;79.93;13.07;;;37.20;25.80;;;;;;5070042;28;20028;-68
2021/09/23 08:27:31;;;;;;;38.58;7.03;;;34.80;27.10;;;;;;5063320;28;20048;-72
2021/09/23 08:29:56;;;;;;;38.20;7.45;;;32.70;28.70;;;;;;5090105;28;20085;-69
2021/09/23 08:32:22;;;;;;;42.60;8.02;;;31.10;30.00;;;;;;5089710;28;20466;-68
2021/09/23 08:34:51;;;;;;;34.40;6.60;;;30.00;31.50;;;;;;5089717;28;20111;-71
2021/09/23 08:37:17;;;;;;;47.22;8.10;;;28.90;32.60;;;;;;5089991;28;20032;-70
2021/09/23 08:39:43;;;;;;;13.38;4.85;;;28.00;33.90;;;;;;5089859;28;20483;-72
2021/09/23 08:42:09;;;;;;;14.77;4.70;;;27.30;35.10;;;;;;5068037;28;20019;-69
2021/09/23 08:44:36;;;;;;;65.07;9.45;;;26.60;36.00;;;;;;5089185;28;20032;-67
2021/09/23 08:47:03;;;;;;;38.08;7.15;;;26.10;37.00;;;;;;5071335;28;20555;-66
2021/09/23 08:49:47;;;;;;;68.53;12.10;;;25.60;37.90;;;;;;5089795;28;20020;-69
2021/09/23 08:52:13;;;;;;;107.28;15.32;;;25.30;39.10;;;;;;5088922;28;20058;-66
2021/09/23 08:54:39;;;;;;;23.13;5.90;;;25.00;39.20;;;;;;5088389;28;20306;-63
2021/09/23 08:57:06;;;;;;;49.53;8.65;;;24.80;39.70;;;;;;5071492;28;20062;-68
2021/09/23 08:59:32;;;;;;;61.15;9.00;;;24.60;40.90;;;;;;5071281;28;20116;-67
2021/09/23 09:01:59;;;;;;;37.47;7.40;;;24.30;40.40;;;;;;5089098;28;20065;-68
2021/09/23 09:04:35;;;;;;;45.35;7.10;;;24.10;40.80;;;;;;5070753;28;20036;-69
2021/09/23 09:07:02;;;;;;;32.17;6.78;;;23.70;41.50;;;;;;5088227;28;20039;-65
2021/09/23 09:09:29;;;;;;;46.95;8.13;;;23.50;41.90;;;;;;5089664;28;20023;-67
2021/09/23 09:11:56;;;;;;;30.85;6.55;;;23.30;42.50;;;;;;5090273;28;20475;-68
2021/09/23 09:14:30;;;;;;;30.58;5.47;;;23.10;43.80;;;;;;5055084;28;20465;-65
2021/09/23 09:17:07;;;;;;;56.35;9.63;;;22.70;43.90;;;;;;5075670;28;20405;-65
2021/09/23 09:19:51;;;;;;;48.28;7.32;;;22.60;44.40;;;;;;5075520;28;20038;-67
2021/09/23 09:22:18;;;;;;;;;;;22.50;45.40;;;;;;5094065;28;20061;-70
2021/09/23 09:24:59;;;;;;;69.57;9.00;;;22.40;45.70;;;;;;5094270;28;19979;-69
2021/09/23 09:27:58;;;;;;;54.30;7.43;;;22.30;45.80;;;;;;5075734;28;20481;-69
2021/09/23 09:30:32;;;;;;;38.20;7.03;;;22.10;45.80;;;;;;5093994;28;20062;-70
2021/09/23 09:32:59;;;;;;;47.35;7.82;;;22.10;46.10;;;;;;5075490;28;20119;-69
2021/09/23 09:35:30;;;;;;;45.10;6.25;;;22.00;46.00;;;;;;5094070;28;20169;-70
2021/09/23 09:37:59;;;;;;;65.35;9.52;;;21.90;45.90;;;;;;5075203;28;20027;-68
2021/09/23 09:40:34;;;;;;;64.38;8.40;;;22.00;46.10;;;;;;5093682;28;20035;-68
2021/09/23 09:43:20;;;;;;;51.40;7.60;;;22.00;46.00;;;;;;5073733;28;20143;-69
2021/09/23 09:45:50;;;;;;;85.32;9.13;;;22.10;46.10;;;;;;5092678;28;20111;-67
2021/09/23 09:48:28;;;;;;;31.27;5.72;;;22.10;45.90;;;;;;5057907;28;20035;-69
2021/09/23 09:51:01;;;;;;;33.65;5.63;;;22.10;45.90;;;;;;5074495;28;20020;-70
2021/09/23 09:53:28;;;;;;;30.95;5.68;;;22.10;45.70;;;;;;5092719;28;20460;-70
2021/09/23 09:55:55;;;;;;;19.35;4.80;;;22.20;45.80;;;;;;5074900;28;20258;-68
2021/09/23 09:58:24;;;;;;;15.20;3.92;;;22.30;45.60;;;;;;5075329;28;20024;-70
2021/09/23 10:00:50;;;;;;;12.48;4.35;;;22.30;45.20;;;;;;5074310;28;20035;-68
2021/09/23 10:03:19;;;;;;;13.75;4.05;;;22.30;46.20;;;;;;5073739;28;20097;-67
2021/09/23 10:05:45;;;;;;;11.27;3.85;;;22.40;45.50;;;;;;5091589;28;20366;-73
2021/09/23 10:08:12;;;;;;;12.75;4.60;;;22.30;45.70;;;;;;5073587;28;20036;-70
2021/09/23 10:10:39;;;;;;;13.05;4.85;;;22.40;45.70;;;;;;5093184;28;20116;-69
2021/09/23 10:13:07;;;;;;;10.93;3.70;;;22.50;45.60;;;;;;5093931;28;20093;-67
2021/09/23 10:15:34;;;;;;;13.52;4.38;;;22.60;45.40;;;;;;5092824;28;20024;-68
2021/09/23 10:18:01;;;;;;;11.13;5.03;;;22.70;44.60;;;;;;5093052;28;20095;-69
2021/09/23 10:20:28;;;;;;;12.02;3.63;;;22.70;44.30;;;;;;5074483;28;20028;-66
2021/09/23 10:22:55;;;;;;;14.05;3.80;;;22.80;44.40;;;;;;5073329;28;20307;-67
2021/09/23 10:25:30;;;;;;;9.32;3.30;;;22.70;44.10;;;;;;5091723;28;20020;-68
2021/09/23 10:27:59;;;;;;;9.30;3.25;;;22.80;44.20;;;;;;5073711;28;20136;-66
2021/09/23 10:30:36;;;;;;;9.65;3.33;;;22.80;44.20;;;;;;5074601;28;20043;-66
2021/09/23 10:33:04;;;;;;;10.35;3.58;;;22.80;44.10;;;;;;5074341;28;20111;-67
2021/09/23 10:35:31;;;;;;;10.57;3.70;;;22.90;44.00;;;;;;5092967;28;20031;-67
2021/09/23 10:38:03;;;;;;;10.68;4.15;;;22.80;43.20;;;;;;5072932;28;20096;-67
2021/09/23 10:40:32;;;;;;;7.53;3.38;;;22.80;43.20;;;;;;5092279;28;20056;-66
2021/09/23 10:43:03;;;;;;;10.13;3.97;;;22.80;43.40;;;;;;5073953;28;20028;-67
2021/09/23 10:45:29;;;;;;;9.52;3.92;;;22.80;43.40;;;;;;5092513;28;20033;-69
2021/09/23 10:47:59;;;;;;;8.15;3.67;;;22.80;43.50;;;;;;5091528;28;20138;-68
2021/09/23 10:50:29;;;;;;;10.00;3.38;;;22.80;43.40;;;;;;5074240;28;20031;-67
2021/09/23 10:52:57;;;;;;;8.95;3.30;;;22.80;43.50;;;;;;5072577;28;20215;-69
2021/09/23 10:55:25;;;;;;;10.52;3.58;;;22.80;43.30;;;;;;5089877;28;20077;-68
2021/09/23 10:57:55;;;;;;;9.95;3.65;;;22.80;43.40;;;;;;5090584;28;20031;-68
2021/09/23 11:00:29;;;;;;;13.13;3.95;;;22.90;43.20;;;;;;5091684;28;20127;-69
2021/09/23 11:02:56;;;;;;;8.43;4.00;;;23.10;43.20;;;;;;5090179;28;20433;-69
2021/09/23 11:05:23;;;;;;;7.75;3.80;;;23.30;43.00;;;;;;5073114;28;20462;-68
2021/09/23 11:07:52;;;;;;;11.38;3.55;;;23.30;41.90;;;;;;5072852;28;20102;-69
2021/09/23 11:10:20;;;;;;;14.27;3.92;;;23.30;42.20;;;;;;5071281;28;20095;-68
2021/09/23 11:12:48;;;;;;;48.38;7.43;;;23.10;42.40;;;;;;5072495;28;20058;-66
2021/09/23 11:15:18;;;;;;;30.17;5.70;;;23.10;42.30;;;;;;5091209;28;20016;-66
2021/09/23 11:17:48;;;;;;;12.85;4.03;;;23.10;42.30;;;;;;5090749;28;20024;-66
2021/09/23 11:20:37;;;;;;;34.28;6.53;;;23.10;42.20;;;;;;5088520;28;20016;-67
2021/09/23 11:23:07;;;;;;;24.67;5.28;;;23.20;42.00;;;;;;5068164;28;20035;-68
2021/09/23 11:25:39;;;;;;;20.08;4.70;;;23.20;41.80;;;;;;5089953;28;20023;-67
2021/09/23 11:28:05;;;;;;;23.38;4.78;;;23.30;41.60;;;;;;5087943;28;20044;-69
2021/09/23 11:30:37;;;;;;;24.90;4.90;;;23.30;41.60;;;;;;5090166;28;20027;-69
2021/09/23 11:33:30;;;;;;;86.72;13.25;;;23.40;41.40;;;;;;5072368;28;20058;-68
2021/09/23 11:35:56;;;;;;;51.92;8.75;;;23.40;40.40;;;;;;5090375;28;20012;-67
2021/09/23 11:38:25;;;;;;;45.53;9.25;;;23.40;41.50;;;;;;5089953;28;20031;-66
2021/09/23 11:40:55;;;;;;;59.47;8.77;;;23.40;41.00;;;;;;5072614;28;20488;-66
2021/09/23 11:43:25;;;;;;;92.50;10.82;;;23.50;41.70;;;;;;5071847;28;20119;-66
2021/09/23 11:46:16;;;;;;;51.55;7.28;;;23.60;40.30;;;;;;5072292;28;20023;-66
2021/09/23 11:48:44;;;;;;;34.40;5.93;;;23.70;39.90;;;;;;5071624;28;20106;-66
2021/09/23 11:51:14;;;;;;;34.65;6.22;;;23.90;40.70;;;;;;5091016;28;20437;-64
2021/09/23 11:53:40;;;;;;;81.32;10.65;;;24.00;39.90;;;;;;5072458;28;20194;-68
2021/09/23 11:56:15;;;;;;;60.88;9.30;;;24.20;39.50;;;;;;5071984;28;20020;-69
2021/09/23 11:58:46;;;;;;;64.55;9.65;;;24.40;39.60;;;;;;5071195;28;20027;-68
2021/09/23 12:01:12;;;;;;;82.22;9.85;;;24.40;40.30;;;;;;5088645;28;20031;-68
2021/09/23 12:03:42;;;;;;;50.80;7.55;;;24.50;39.60;;;;;;5070352;28;20032;-70
2021/09/23 12:06:14;;;;;;;92.88;12.07;;;24.50;39.10;;;;;;5068961;28;20464;-67
2021/09/23 12:08:40;;;;;;;63.30;8.73;;;24.40;39.30;;;;;;5071389;28;20028;-66
2021/09/23 12:11:11;;;;;;;66.85;9.85;;;24.40;39.40;;;;;;5089144;28;20438;-67
2021/09/23 12:13:50;;;;;;;55.50;8.63;;;24.40;39.40;;;;;;5089165;28;20162;-67
2021/09/23 12:16:18;;;;;;;38.72;7.50;;;24.40;39.70;;;;;;5071820;28;20114;-67
2021/09/23 12:18:46;;;;;;;41.38;17.08;;;24.50;39.50;;;;;;5065317;28;20031;-64
2021/09/23 12:21:18;;;;;;;52.17;27.00;;;24.60;39.20;;;;;;5088915;28;20092;-65
2021/09/23 12:23:47;;;;;;;23.63;9.93;;;24.60;38.90;;;;;;5070496;28;20059;-66
2021/09/23 12:26:17;;;;;;;25.27;7.00;;;24.70;38.90;;;;;;5087480;28;20049;-66
2021/09/23 12:28:49;;;;;;;5.70;3.35;;;24.80;38.80;;;;;;5050621;28;20033;-66
2021/09/23 12:31:17;;;;;;;22.83;5.30;;;25.00;38.60;;;;;;5069318;28;20035;-64
2021/09/23 12:34:49;;;;;;;33.40;6.60;;;25.10;38.70;;;;;;5051351;28;20029;-65
2021/09/23 12:37:24;;;;;;;16.63;5.13;;;25.20;38.60;;;;;;5055825;28;20051;-64
2021/09/23 12:39:50;;;;;;;9.63;3.15;;;25.30;38.20;;;;;;5068408;28;20107;-63
2021/09/23 12:42:24;;;;;;;6.70;3.50;;;25.30;38.10;;;;;;5068770;28;20028;-63
2021/09/23 12:45:00;;;;;;;9.45;3.80;;;25.30;37.90;;;;;;5051230;28;20047;-64
2021/09/23 12:47:30;;;;;;;16.50;4.65;;;25.50;37.90;;;;;;5050984;28;20453;-62
2021/09/23 12:50:03;;;;;;;8.65;5.07;;;25.50;38.00;;;;;;5068852;28;20430;-64
2021/09/23 12:52:40;;;;;;;13.45;5.82;;;25.50;38.20;;;;;;5068671;28;20036;-64